createdAt,value
2019-05-21T00:03:18.096Z,28.55
2019-05-21T00:08:22.577Z,29.07
2019-05-21T00:13:26.922Z,29.52
2019-05-21T00:18:31.326Z,29.65
2019-05-21T00:23:35.726Z,29.95
2019-05-21T00:28:39.094Z,29.37
2019-05-21T00:34:19.932Z,28.38
2019-05-21T00:40:00.741Z,27.95
2019-05-21T00:50:11.812Z,27.30
2019-05-21T00:55:16.213Z,27.25
2019-05-21T01:00:20.593Z,27.05
2019-05-21T01:05:24.954Z,26.97
2019-05-21T01:10:29.313Z,25.68
2019-05-21T01:15:33.744Z,25.05
2019-05-21T01:20:38.082Z,24.12
2019-05-21T01:25:42.799Z,23.85
2019-05-21T01:30:47.208Z,23.00
2019-05-21T01:35:51.604Z,23.32
2019-05-21T01:40:56.543Z,23.75
2019-05-21T01:46:00.887Z,23.87
2019-05-21T01:51:05.216Z,23.62
2019-05-21T01:56:09.555Z,24.67
2019-05-21T02:01:13.918Z,25.72
2019-05-21T02:06:18.319Z,25.68
2019-05-21T02:11:22.720Z,25.32
2019-05-21T02:16:27.087Z,26.20
2019-05-21T02:21:32.016Z,26.75
2019-05-21T02:26:36.371Z,27.05
2019-05-21T02:31:40.737Z,25.75
2019-05-21T02:36:45.152Z,25.48
2019-05-21T02:41:49.498Z,25.52
2019-05-21T02:46:53.826Z,26.52
2019-05-21T02:51:58.168Z,24.50
2019-05-21T02:57:03.204Z,25.62
2019-05-21T03:02:18.125Z,24.23
2019-05-21T03:07:25.531Z,24.23
2019-05-21T03:12:28.514Z,24.12
2019-05-21T03:17:32.891Z,22.67
2019-05-21T03:22:37.522Z,24.57
2019-05-21T03:27:41.926Z,24.80
2019-05-21T03:32:46.298Z,24.25
2019-05-21T03:37:50.700Z,25.17
2019-05-21T03:42:55.073Z,25.92
2019-05-21T03:47:59.468Z,24.47
2019-05-21T03:53:04.028Z,26.30
2019-05-21T03:58:08.474Z,26.70
2019-05-21T04:03:12.886Z,26.80
2019-05-21T04:08:17.279Z,26.65
2019-05-21T04:13:21.783Z,26.85
2019-05-21T04:18:27.800Z,25.35
2019-05-21T04:23:32.267Z,25.35
2019-05-21T04:28:36.619Z,24.70
2019-05-21T04:33:40.971Z,21.93
2019-05-21T04:38:45.415Z,21.62
2019-05-21T04:43:49.768Z,22.45
2019-05-21T04:48:54.193Z,21.42
2019-05-21T04:53:58.548Z,20.70
2019-05-21T04:59:02.883Z,20.08
2019-05-21T05:04:07.699Z,19.40
2019-05-21T05:09:12.039Z,19.10
2019-05-21T05:14:16.442Z,16.52
2019-05-21T05:19:20.846Z,17.70
2019-05-21T05:24:25.204Z,15.80
2019-05-21T05:29:29.607Z,16.32
2019-05-21T05:34:33.973Z,15.53
2019-05-21T05:39:38.398Z,15.53
2019-05-21T05:44:42.738Z,15.05
2019-05-21T05:49:57.379Z,14.35
2019-05-21T05:55:01.776Z,13.65
2019-05-21T06:00:09.487Z,13.62
2019-05-21T06:05:14.373Z,13.65
2019-05-21T06:10:19.127Z,12.85
2019-05-21T06:15:23.529Z,12.78
2019-05-21T06:20:27.989Z,13.20
2019-05-21T06:25:32.397Z,13.38
2019-05-21T06:30:36.738Z,11.60
2019-05-21T06:35:41.075Z,10.15
2019-05-21T06:40:45.474Z,10.35
2019-05-21T06:45:50.791Z,9.90
2019-05-21T06:50:55.128Z,11.10
2019-05-21T06:55:59.511Z,10.68
2019-05-21T07:01:04.096Z,10.13
2019-05-21T07:06:08.564Z,8.93
2019-05-21T07:11:12.930Z,8.65
2019-05-21T07:16:17.268Z,8.80
2019-05-21T07:21:21.645Z,7.95
2019-05-21T07:26:26.041Z,7.90
2019-05-21T07:31:30.452Z,7.25
2019-05-21T07:36:34.820Z,6.97
2019-05-21T07:41:39.232Z,6.00
2019-05-21T07:46:43.692Z,7.10
2019-05-21T07:51:48.025Z,6.03
2019-05-21T07:56:52.443Z,10.10
2019-05-21T08:01:56.778Z,5.70
2019-05-21T08:07:01.132Z,5.65
2019-05-21T08:12:27.454Z,5.53
2019-05-21T08:17:17.353Z,5.55
2019-05-21T08:22:22.279Z,4.70
2019-05-21T08:27:26.674Z,4.05
2019-05-21T08:32:31.187Z,4.67
2019-05-21T08:37:35.583Z,4.20
2019-05-21T08:42:40.073Z,4.10
2019-05-21T08:47:45.503Z,3.55
2019-05-21T08:52:50.847Z,4.03
2019-05-21T08:58:06.414Z,3.95
2019-05-21T09:03:01.358Z,4.08
2019-05-21T09:08:06.741Z,3.47
2019-05-21T09:13:11.259Z,4.30
2019-05-21T09:18:16.847Z,4.70
2019-05-21T09:23:24.964Z,3.58
2019-05-21T09:28:29.465Z,3.75
2019-05-21T09:33:34.959Z,3.80
2019-05-21T09:38:39.308Z,3.50
2019-05-21T09:43:43.723Z,3.72
2019-05-21T09:48:48.069Z,3.70
2019-05-21T09:53:52.420Z,3.50
2019-05-21T09:58:58.440Z,3.80
2019-05-21T10:04:06.283Z,3.90
2019-05-21T10:09:12.418Z,3.90
2019-05-21T10:14:16.818Z,3.85
2019-05-21T10:19:21.166Z,3.70
2019-05-21T10:24:25.576Z,3.67
2019-05-21T10:29:31.357Z,3.83
2019-05-21T10:34:35.790Z,3.90
2019-05-21T10:39:40.124Z,3.65
2019-05-21T10:44:44.453Z,5.42
2019-05-21T10:49:48.879Z,3.80
2019-05-21T10:54:53.249Z,4.92
2019-05-21T10:59:57.678Z,4.33
2019-05-21T11:05:21.811Z,3.83
2019-05-21T11:10:26.295Z,3.80
2019-05-21T11:15:30.726Z,3.37
2019-05-21T11:20:35.188Z,3.50
2019-05-21T11:25:39.573Z,3.27
2019-05-21T11:30:43.974Z,3.65
2019-05-21T11:35:49.454Z,3.67
2019-05-21T11:40:53.979Z,3.83
2019-05-21T11:45:58.412Z,3.33
2019-05-21T11:51:02.768Z,4.50
2019-05-21T11:56:07.106Z,4.08
2019-05-21T12:01:11.866Z,3.95
2019-05-21T12:06:16.291Z,3.70
2019-05-21T12:11:20.685Z,4.10
2019-05-21T12:16:26.739Z,4.08
2019-05-21T12:21:31.072Z,4.00
2019-05-21T12:26:35.418Z,3.80
2019-05-21T12:31:39.831Z,4.10
2019-05-21T12:36:44.175Z,4.10
2019-05-21T12:41:48.508Z,4.28
2019-05-21T12:46:52.865Z,4.22
2019-05-21T12:51:57.283Z,4.10
2019-05-21T12:57:01.658Z,4.10
2019-05-21T13:02:06.113Z,9.20
2019-05-21T13:07:10.653Z,3.83
2019-05-21T13:12:15.082Z,4.10
2019-05-21T13:17:19.651Z,3.25
2019-05-21T13:22:24.297Z,5.20
2019-05-21T13:27:28.676Z,4.22
2019-05-21T13:32:33.072Z,3.45
2019-05-21T13:37:37.464Z,4.10
2019-05-21T13:42:42.335Z,4.45
2019-05-21T13:47:46.812Z,4.33
2019-05-21T13:52:51.475Z,4.58
2019-05-21T13:57:56.138Z,5.45
2019-05-21T14:03:02.392Z,5.20
2019-05-21T14:08:06.809Z,4.47
2019-05-21T14:13:11.601Z,4.20
2019-05-21T14:18:15.951Z,4.70
2019-05-21T14:23:20.356Z,3.75
2019-05-21T14:28:24.759Z,4.03
2019-05-21T14:33:29.218Z,3.90
2019-05-21T14:38:33.597Z,3.80
2019-05-21T14:43:38.026Z,3.70
2019-05-21T14:48:42.412Z,3.25
2019-05-21T14:53:47.080Z,4.15
2019-05-21T14:58:51.470Z,4.97
2019-05-21T15:03:55.982Z,5.33
2019-05-21T15:09:00.430Z,5.37
2019-05-21T15:14:04.971Z,5.50
2019-05-21T15:19:09.455Z,5.12
2019-05-21T15:24:14.805Z,5.42
2019-05-21T15:29:20.191Z,5.55
2019-05-21T15:34:24.519Z,5.37
2019-05-21T15:39:28.878Z,6.40
2019-05-21T15:44:33.217Z,5.60
2019-05-21T15:49:38.575Z,7.45
2019-05-21T15:54:42.928Z,5.90
2019-05-21T15:59:47.300Z,5.35
2019-05-21T16:04:51.784Z,5.55
2019-05-21T16:09:56.286Z,5.72
2019-05-21T16:15:00.697Z,4.83
2019-05-21T16:20:10.004Z,3.50
2019-05-21T16:25:16.543Z,4.40
2019-05-21T16:30:20.951Z,3.65
2019-05-21T16:35:25.334Z,3.72
2019-05-21T16:40:29.734Z,4.33
2019-05-21T16:45:34.069Z,4.45
2019-05-21T16:50:44.222Z,4.40
2019-05-21T16:55:50.040Z,4.58
2019-05-21T17:00:54.451Z,4.97
2019-05-21T17:05:58.801Z,4.75
2019-05-21T17:11:03.146Z,4.80
2019-05-21T17:16:07.499Z,7.03
2019-05-21T17:21:11.959Z,4.10
2019-05-21T17:26:16.307Z,4.35
2019-05-21T17:31:20.746Z,3.72
2019-05-21T17:36:25.165Z,4.70
2019-05-21T17:41:29.508Z,4.42
2019-05-21T17:46:33.924Z,4.80
2019-05-21T17:51:38.275Z,5.25
2019-05-21T17:56:42.680Z,5.28
2019-05-21T18:01:47.195Z,5.62
2019-05-21T18:06:51.604Z,5.65
2019-05-21T18:12:00.447Z,6.15
2019-05-21T18:17:05.627Z,6.70
2019-05-21T18:22:12.906Z,7.42
2019-05-21T18:27:17.717Z,7.45
2019-05-21T18:32:22.174Z,6.72
2019-05-21T18:37:27.665Z,7.95
2019-05-21T18:42:32.119Z,6.47
2019-05-21T18:47:36.547Z,6.97
2019-05-21T18:52:41.025Z,7.10
2019-05-21T18:57:45.447Z,7.45
2019-05-21T19:02:50.629Z,7.78
2019-05-21T19:07:55.059Z,8.78
2019-05-21T19:13:01.357Z,8.25
2019-05-21T19:18:06.163Z,9.73
2019-05-21T19:23:10.517Z,10.28
2019-05-21T19:28:14.933Z,9.95
2019-05-21T19:33:19.284Z,7.45
2019-05-21T19:38:23.793Z,8.48
2019-05-21T19:43:29.416Z,9.68
2019-05-21T19:48:35.035Z,7.65
2019-05-21T19:53:39.373Z,7.35
2019-05-21T19:58:43.816Z,5.20
2019-05-21T20:03:48.905Z,5.40
2019-05-21T20:08:55.920Z,5.15
2019-05-21T20:14:01.324Z,5.40
2019-05-21T20:19:06.217Z,7.17
2019-05-21T20:24:10.644Z,6.58
2019-05-21T20:29:16.180Z,7.40
2019-05-21T20:34:20.511Z,7.90
2019-05-21T20:39:26.508Z,7.90
2019-05-21T20:44:31.008Z,8.63
2019-05-21T20:49:35.920Z,7.83
2019-05-21T20:54:42.715Z,8.85
2019-05-21T20:59:47.124Z,9.65
2019-05-21T21:04:51.575Z,7.47
2019-05-21T21:09:56.044Z,6.80
2019-05-21T21:15:01.735Z,6.65
2019-05-21T21:20:07.830Z,7.03
2019-05-21T21:25:13.348Z,8.38
2019-05-21T21:30:17.855Z,10.10
2019-05-21T21:35:22.977Z,9.30
2019-05-21T21:40:27.363Z,9.15
2019-05-21T21:45:32.327Z,10.53
2019-05-21T21:50:38.802Z,10.63
2019-05-21T21:55:43.224Z,13.00
2019-05-21T22:01:14.770Z,13.83
2019-05-21T22:06:22.413Z,13.35
2019-05-21T22:11:28.200Z,14.07
2019-05-21T22:16:33.575Z,17.90
2019-05-21T22:21:38.834Z,16.97
2019-05-21T22:26:43.757Z,17.92
2019-05-21T22:31:48.388Z,26.00
2019-05-21T22:36:53.121Z,20.85
2019-05-21T22:41:57.611Z,21.07
2019-05-21T22:47:02.603Z,22.62
2019-05-21T22:52:06.983Z,22.93
2019-05-21T22:57:11.419Z,22.98
2019-05-21T23:02:17.470Z,24.98
2019-05-21T23:07:21.968Z,24.87
2019-05-21T23:12:27.249Z,24.98
2019-05-21T23:17:31.652Z,25.00
2019-05-21T23:22:38.181Z,25.17
2019-05-21T23:27:42.810Z,27.50
2019-05-21T23:32:47.144Z,27.62
2019-05-21T23:37:52.033Z,30.70
2019-05-21T23:42:56.459Z,31.65
2019-05-21T23:48:02.600Z,34.50
2019-05-21T23:53:08.043Z,36.53
2019-05-21T23:58:13.009Z,37.38
